sensor_id;sensor_type;location;lat;lon;timestamp;P1;durP1;ratioP1;P2;durP2;ratioP2
61903;SDS011;47857;52.270;6.804;2024-02-26T00:02:16;10.93;;;7.53;;
61903;SDS011;47857;52.270;6.804;2024-02-26T00:04:42;11.93;;;7.53;;
61903;SDS011;47857;52.270;6.804;2024-02-26T00:07:07;10.90;;;7.78;;
61903;SDS011;47857;52.270;6.804;2024-02-26T00:09:33;9.85;;;6.95;;
61903;SDS011;47857;52.270;6.804;2024-02-26T00:12:04;9.07;;;6.88;;
61903;SDS011;47857;52.270;6.804;2024-02-26T00:14:30;8.35;;;6.95;;
61903;SDS011;47857;52.270;6.804;2024-02-26T00:16:56;13.25;;;7.38;;
61903;SDS011;47857;52.270;6.804;2024-02-26T00:19:21;9.00;;;7.30;;
61903;SDS011;47857;52.270;6.804;2024-02-26T00:21:47;10.20;;;7.47;;
61903;SDS011;47857;52.270;6.804;2024-02-26T00:24:12;10.75;;;7.78;;
61903;SDS011;47857;52.270;6.804;2024-02-26T00:26:38;10.98;;;7.68;;
61903;SDS011;47857;52.270;6.804;2024-02-26T00:29:04;9.45;;;7.35;;
61903;SDS011;47857;52.270;6.804;2024-02-26T00:31:30;11.43;;;7.28;;
61903;SDS011;47857;52.270;6.804;2024-02-26T00:33:56;10.93;;;7.30;;
61903;SDS011;47857;52.270;6.804;2024-02-26T00:36:21;10.90;;;7.88;;
61903;SDS011;47857;52.270;6.804;2024-02-26T00:38:46;9.80;;;7.03;;
61903;SDS011;47857;52.270;6.804;2024-02-26T00:41:18;8.23;;;6.40;;
61903;SDS011;47857;52.270;6.804;2024-02-26T00:43:45;10.15;;;7.75;;
61903;SDS011;47857;52.270;6.804;2024-02-26T00:46:11;10.55;;;6.50;;
61903;SDS011;47857;52.270;6.804;2024-02-26T00:48:36;10.25;;;6.50;;
61903;SDS011;47857;52.270;6.804;2024-02-26T00:51:02;11.32;;;6.93;;
61903;SDS011;47857;52.270;6.804;2024-02-26T00:53:30;8.30;;;6.28;;
61903;SDS011;47857;52.270;6.804;2024-02-26T00:55:56;8.45;;;6.72;;
61903;SDS011;47857;52.270;6.804;2024-02-26T00:58:24;10.07;;;6.80;;
61903;SDS011;47857;52.270;6.804;2024-02-26T01:00:50;10.88;;;7.03;;
61903;SDS011;47857;52.270;6.804;2024-02-26T01:03:16;8.95;;;6.85;;
61903;SDS011;47857;52.270;6.804;2024-02-26T01:05:42;8.82;;;6.18;;
61903;SDS011;47857;52.270;6.804;2024-02-26T01:08:08;8.80;;;6.68;;
61903;SDS011;47857;52.270;6.804;2024-02-26T01:10:33;12.82;;;6.35;;
61903;SDS011;47857;52.270;6.804;2024-02-26T01:12:59;10.75;;;7.07;;
61903;SDS011;47857;52.270;6.804;2024-02-26T01:15:25;8.18;;;6.50;;
61903;SDS011;47857;52.270;6.804;2024-02-26T01:17:50;8.93;;;6.57;;
61903;SDS011;47857;52.270;6.804;2024-02-26T01:20:16;9.75;;;6.65;;
61903;SDS011;47857;52.270;6.804;2024-02-26T01:22:43;10.10;;;6.50;;
61903;SDS011;47857;52.270;6.804;2024-02-26T01:25:08;8.25;;;6.18;;
61903;SDS011;47857;52.270;6.804;2024-02-26T01:27:35;8.27;;;6.47;;
61903;SDS011;47857;52.270;6.804;2024-02-26T01:30:03;9.13;;;6.15;;
61903;SDS011;47857;52.270;6.804;2024-02-26T01:32:30;8.25;;;6.10;;
61903;SDS011;47857;52.270;6.804;2024-02-26T01:34:55;8.40;;;6.40;;
61903;SDS011;47857;52.270;6.804;2024-02-26T01:37:21;11.68;;;6.10;;
61903;SDS011;47857;52.270;6.804;2024-02-26T01:39:47;8.48;;;6.28;;
61903;SDS011;47857;52.270;6.804;2024-02-26T01:42:12;7.47;;;5.95;;
61903;SDS011;47857;52.270;6.804;2024-02-26T01:44:38;8.95;;;6.80;;
61903;SDS011;47857;52.270;6.804;2024-02-26T01:47:05;7.15;;;5.60;;
61903;SDS011;47857;52.270;6.804;2024-02-26T01:49:31;7.65;;;5.65;;
61903;SDS011;47857;52.270;6.804;2024-02-26T01:51:56;8.02;;;5.18;;
61903;SDS011;47857;52.270;6.804;2024-02-26T01:54:23;8.40;;;4.97;;
61903;SDS011;47857;52.270;6.804;2024-02-26T01:56:48;6.57;;;4.85;;
61903;SDS011;47857;52.270;6.804;2024-02-26T01:59:14;7.47;;;5.43;;
61903;SDS011;47857;52.270;6.804;2024-02-26T02:01:40;7.40;;;5.03;;
61903;SDS011;47857;52.270;6.804;2024-02-26T02:04:10;8.80;;;5.00;;
61903;SDS011;47857;52.270;6.804;2024-02-26T02:06:36;7.05;;;4.88;;
61903;SDS011;47857;52.270;6.804;2024-02-26T02:09:03;7.63;;;5.00;;
61903;SDS011;47857;52.270;6.804;2024-02-26T02:11:32;6.07;;;4.70;;
61903;SDS011;47857;52.270;6.804;2024-02-26T02:13:58;8.45;;;4.60;;
61903;SDS011;47857;52.270;6.804;2024-02-26T02:16:24;5.85;;;4.40;;
61903;SDS011;47857;52.270;6.804;2024-02-26T02:18:50;7.40;;;4.38;;
61903;SDS011;47857;52.270;6.804;2024-02-26T02:21:15;5.65;;;4.38;;
61903;SDS011;47857;52.270;6.804;2024-02-26T02:23:41;6.00;;;4.65;;
61903;SDS011;47857;52.270;6.804;2024-02-26T02:26:11;6.40;;;4.60;;
61903;SDS011;47857;52.270;6.804;2024-02-26T02:28:37;5.60;;;4.68;;
61903;SDS011;47857;52.270;6.804;2024-02-26T02:31:02;8.75;;;4.38;;
61903;SDS011;47857;52.270;6.804;2024-02-26T02:33:28;6.10;;;4.85;;
61903;SDS011;47857;52.270;6.804;2024-02-26T02:35:54;7.38;;;4.80;;
61903;SDS011;47857;52.270;6.804;2024-02-26T02:38:20;6.88;;;4.78;;
61903;SDS011;47857;52.270;6.804;2024-02-26T02:40:46;6.53;;;4.57;;
61903;SDS011;47857;52.270;6.804;2024-02-26T02:43:11;6.32;;;4.85;;
61903;SDS011;47857;52.270;6.804;2024-02-26T02:45:37;6.78;;;4.70;;
61903;SDS011;47857;52.270;6.804;2024-02-26T02:48:02;6.78;;;4.90;;
61903;SDS011;47857;52.270;6.804;2024-02-26T02:50:28;7.88;;;5.10;;
61903;SDS011;47857;52.270;6.804;2024-02-26T02:52:54;8.27;;;4.70;;
61903;SDS011;47857;52.270;6.804;2024-02-26T02:55:19;6.75;;;4.43;;
61903;SDS011;47857;52.270;6.804;2024-02-26T02:57:45;7.60;;;4.70;;
61903;SDS011;47857;52.270;6.804;2024-02-26T03:00:11;6.07;;;4.68;;
61903;SDS011;47857;52.270;6.804;2024-02-26T03:02:37;6.88;;;4.10;;
61903;SDS011;47857;52.270;6.804;2024-02-26T03:05:05;5.10;;;3.90;;
61903;SDS011;47857;52.270;6.804;2024-02-26T03:07:31;4.80;;;3.85;;
61903;SDS011;47857;52.270;6.804;2024-02-26T03:09:57;5.13;;;3.88;;
61903;SDS011;47857;52.270;6.804;2024-02-26T03:12:22;8.32;;;4.18;;
61903;SDS011;47857;52.270;6.804;2024-02-26T03:14:48;6.22;;;3.90;;
61903;SDS011;47857;52.270;6.804;2024-02-26T03:17:13;7.57;;;3.65;;
61903;SDS011;47857;52.270;6.804;2024-02-26T03:19:39;5.07;;;3.75;;
61903;SDS011;47857;52.270;6.804;2024-02-26T03:22:04;6.13;;;4.05;;
61903;SDS011;47857;52.270;6.804;2024-02-26T03:24:30;6.05;;;3.83;;
61903;SDS011;47857;52.270;6.804;2024-02-26T03:26:55;5.65;;;4.20;;
61903;SDS011;47857;52.270;6.804;2024-02-26T03:29:21;4.40;;;3.47;;
61903;SDS011;47857;52.270;6.804;2024-02-26T03:31:47;5.18;;;3.60;;
61903;SDS011;47857;52.270;6.804;2024-02-26T03:34:12;6.60;;;3.88;;
61903;SDS011;47857;52.270;6.804;2024-02-26T03:36:39;6.40;;;4.53;;
61903;SDS011;47857;52.270;6.804;2024-02-26T03:39:06;5.95;;;3.85;;
61903;SDS011;47857;52.270;6.804;2024-02-26T03:41:33;6.10;;;3.90;;
61903;SDS011;47857;52.270;6.804;2024-02-26T03:43:59;5.20;;;3.30;;
61903;SDS011;47857;52.270;6.804;2024-02-26T03:46:24;5.35;;;3.72;;
61903;SDS011;47857;52.270;6.804;2024-02-26T03:48:50;6.53;;;3.80;;
61903;SDS011;47857;52.270;6.804;2024-02-26T03:51:15;6.28;;;4.38;;
61903;SDS011;47857;52.270;6.804;2024-02-26T03:53:41;6.55;;;4.45;;
61903;SDS011;47857;52.270;6.804;2024-02-26T03:56:06;6.80;;;4.90;;
61903;SDS011;47857;52.270;6.804;2024-02-26T03:58:32;5.32;;;4.50;;
61903;SDS011;47857;52.270;6.804;2024-02-26T04:00:58;8.52;;;5.55;;
61903;SDS011;47857;52.270;6.804;2024-02-26T04:03:24;8.25;;;5.97;;
61903;SDS011;47857;52.270;6.804;2024-02-26T04:05:50;9.57;;;5.88;;
61903;SDS011;47857;52.270;6.804;2024-02-26T04:08:16;9.50;;;5.78;;
61903;SDS011;47857;52.270;6.804;2024-02-26T04:10:41;7.88;;;5.97;;
61903;SDS011;47857;52.270;6.804;2024-02-26T04:13:07;9.00;;;6.28;;
61903;SDS011;47857;52.270;6.804;2024-02-26T04:15:33;9.52;;;6.15;;
61903;SDS011;47857;52.270;6.804;2024-02-26T04:17:58;8.93;;;6.40;;
61903;SDS011;47857;52.270;6.804;2024-02-26T04:20:24;7.55;;;6.10;;
61903;SDS011;47857;52.270;6.804;2024-02-26T04:22:49;7.55;;;5.38;;
61903;SDS011;47857;52.270;6.804;2024-02-26T04:25:15;7.00;;;5.53;;
61903;SDS011;47857;52.270;6.804;2024-02-26T04:27:40;7.53;;;6.07;;
61903;SDS011;47857;52.270;6.804;2024-02-26T04:30:06;7.80;;;5.78;;
61903;SDS011;47857;52.270;6.804;2024-02-26T04:32:33;7.70;;;5.55;;
61903;SDS011;47857;52.270;6.804;2024-02-26T04:34:59;8.93;;;6.00;;
61903;SDS011;47857;52.270;6.804;2024-02-26T04:37:25;7.35;;;5.40;;
61903;SDS011;47857;52.270;6.804;2024-02-26T04:39:57;7.95;;;5.60;;
61903;SDS011;47857;52.270;6.804;2024-02-26T04:42:26;7.95;;;5.72;;
61903;SDS011;47857;52.270;6.804;2024-02-26T04:44:51;7.95;;;5.38;;
61903;SDS011;47857;52.270;6.804;2024-02-26T04:47:17;8.52;;;5.78;;
61903;SDS011;47857;52.270;6.804;2024-02-26T04:49:43;7.63;;;5.38;;
61903;SDS011;47857;52.270;6.804;2024-02-26T04:52:08;6.32;;;5.22;;
61903;SDS011;47857;52.270;6.804;2024-02-26T04:54:34;7.07;;;5.32;;
61903;SDS011;47857;52.270;6.804;2024-02-26T04:56:59;7.25;;;4.97;;
61903;SDS011;47857;52.270;6.804;2024-02-26T04:59:25;6.65;;;4.90;;
61903;SDS011;47857;52.270;6.804;2024-02-26T05:01:50;6.30;;;4.88;;
61903;SDS011;47857;52.270;6.804;2024-02-26T05:04:18;6.50;;;4.63;;
61903;SDS011;47857;52.270;6.804;2024-02-26T05:06:43;6.30;;;4.82;;
61903;SDS011;47857;52.270;6.804;2024-02-26T05:09:09;5.80;;;4.68;;
61903;SDS011;47857;52.270;6.804;2024-02-26T05:11:34;7.97;;;4.25;;
61903;SDS011;47857;52.270;6.804;2024-02-26T05:14:00;7.07;;;4.50;;
61903;SDS011;47857;52.270;6.804;2024-02-26T05:16:26;6.72;;;4.75;;
61903;SDS011;47857;52.270;6.804;2024-02-26T05:18:52;5.75;;;4.70;;
61903;SDS011;47857;52.270;6.804;2024-02-26T05:21:18;5.70;;;4.47;;
61903;SDS011;47857;52.270;6.804;2024-02-26T05:23:44;4.82;;;4.18;;
61903;SDS011;47857;52.270;6.804;2024-02-26T05:26:10;6.13;;;4.72;;
61903;SDS011;47857;52.270;6.804;2024-02-26T05:28:36;5.82;;;4.40;;
61903;SDS011;47857;52.270;6.804;2024-02-26T05:31:04;7.35;;;4.88;;
61903;SDS011;47857;52.270;6.804;2024-02-26T05:33:30;6.93;;;5.03;;
61903;SDS011;47857;52.270;6.804;2024-02-26T05:35:55;5.70;;;4.70;;
61903;SDS011;47857;52.270;6.804;2024-02-26T05:38:21;8.57;;;4.68;;
61903;SDS011;47857;52.270;6.804;2024-02-26T05:40:46;5.45;;;4.43;;
61903;SDS011;47857;52.270;6.804;2024-02-26T05:43:12;7.35;;;4.82;;
61903;SDS011;47857;52.270;6.804;2024-02-26T05:45:40;6.70;;;5.05;;
61903;SDS011;47857;52.270;6.804;2024-02-26T05:48:06;5.80;;;4.53;;
61903;SDS011;47857;52.270;6.804;2024-02-26T05:50:32;6.30;;;4.53;;
61903;SDS011;47857;52.270;6.804;2024-02-26T05:52:57;6.55;;;4.35;;
61903;SDS011;47857;52.270;6.804;2024-02-26T05:55:23;6.32;;;4.60;;
61903;SDS011;47857;52.270;6.804;2024-02-26T05:57:48;6.72;;;4.40;;
61903;SDS011;47857;52.270;6.804;2024-02-26T06:00:15;6.60;;;5.25;;
61903;SDS011;47857;52.270;6.804;2024-02-26T06:02:40;7.00;;;4.72;;
61903;SDS011;47857;52.270;6.804;2024-02-26T06:05:06;6.57;;;5.05;;
61903;SDS011;47857;52.270;6.804;2024-02-26T06:07:34;6.70;;;5.15;;
61903;SDS011;47857;52.270;6.804;2024-02-26T06:10:00;7.30;;;5.10;;
61903;SDS011;47857;52.270;6.804;2024-02-26T06:12:26;10.65;;;5.47;;
61903;SDS011;47857;52.270;6.804;2024-02-26T06:14:53;7.85;;;5.35;;
61903;SDS011;47857;52.270;6.804;2024-02-26T06:17:19;6.40;;;5.28;;
61903;SDS011;47857;52.270;6.804;2024-02-26T06:19:44;8.68;;;5.07;;
61903;SDS011;47857;52.270;6.804;2024-02-26T06:22:10;6.72;;;5.03;;
61903;SDS011;47857;52.270;6.804;2024-02-26T06:24:35;7.18;;;5.07;;
61903;SDS011;47857;52.270;6.804;2024-02-26T06:27:01;7.38;;;5.07;;
61903;SDS011;47857;52.270;6.804;2024-02-26T06:29:26;8.50;;;5.57;;
61903;SDS011;47857;52.270;6.804;2024-02-26T06:31:52;10.35;;;5.25;;
61903;SDS011;47857;52.270;6.804;2024-02-26T06:34:17;6.93;;;5.40;;
61903;SDS011;47857;52.270;6.804;2024-02-26T06:36:43;9.80;;;6.43;;
61903;SDS011;47857;52.270;6.804;2024-02-26T06:39:08;8.63;;;6.13;;
61903;SDS011;47857;52.270;6.804;2024-02-26T06:41:35;7.72;;;6.10;;
61903;SDS011;47857;52.270;6.804;2024-02-26T06:44:01;8.35;;;5.78;;
61903;SDS011;47857;52.270;6.804;2024-02-26T06:46:27;7.60;;;6.05;;
61903;SDS011;47857;52.270;6.804;2024-02-26T06:48:55;9.82;;;6.50;;
61903;SDS011;47857;52.270;6.804;2024-02-26T06:51:21;12.95;;;7.55;;
61903;SDS011;47857;52.270;6.804;2024-02-26T06:53:47;11.77;;;7.65;;
61903;SDS011;47857;52.270;6.804;2024-02-26T06:56:13;9.85;;;7.22;;
61903;SDS011;47857;52.270;6.804;2024-02-26T06:58:38;9.98;;;7.57;;
61903;SDS011;47857;52.270;6.804;2024-02-26T07:01:04;9.02;;;6.75;;
61903;SDS011;47857;52.270;6.804;2024-02-26T07:03:29;9.38;;;7.32;;
61903;SDS011;47857;52.270;6.804;2024-02-26T07:05:55;10.98;;;8.02;;
61903;SDS011;47857;52.270;6.804;2024-02-26T07:08:22;10.90;;;7.55;;
61903;SDS011;47857;52.270;6.804;2024-02-26T07:10:47;10.68;;;8.07;;
61903;SDS011;47857;52.270;6.804;2024-02-26T07:13:13;13.23;;;8.40;;
61903;SDS011;47857;52.270;6.804;2024-02-26T07:15:38;11.13;;;8.35;;
61903;SDS011;47857;52.270;6.804;2024-02-26T07:18:04;11.95;;;8.48;;
61903;SDS011;47857;52.270;6.804;2024-02-26T07:20:30;14.20;;;9.57;;
61903;SDS011;47857;52.270;6.804;2024-02-26T07:22:56;12.50;;;8.93;;
61903;SDS011;47857;52.270;6.804;2024-02-26T07:25:22;14.45;;;9.65;;
61903;SDS011;47857;52.270;6.804;2024-02-26T07:27:47;14.25;;;9.80;;
61903;SDS011;47857;52.270;6.804;2024-02-26T07:30:13;14.85;;;10.18;;
61903;SDS011;47857;52.270;6.804;2024-02-26T07:32:39;18.10;;;10.13;;
61903;SDS011;47857;52.270;6.804;2024-02-26T07:35:04;15.93;;;10.32;;
61903;SDS011;47857;52.270;6.804;2024-02-26T07:37:30;15.60;;;10.68;;
61903;SDS011;47857;52.270;6.804;2024-02-26T07:39:56;13.88;;;9.80;;
61903;SDS011;47857;52.270;6.804;2024-02-26T07:42:22;14.45;;;10.55;;
61903;SDS011;47857;52.270;6.804;2024-02-26T07:44:47;26.10;;;10.95;;
61903;SDS011;47857;52.270;6.804;2024-02-26T07:47:13;18.08;;;11.30;;
61903;SDS011;47857;52.270;6.804;2024-02-26T07:49:39;21.30;;;11.35;;
61903;SDS011;47857;52.270;6.804;2024-02-26T07:52:05;15.85;;;10.88;;
61903;SDS011;47857;52.270;6.804;2024-02-26T07:54:30;24.60;;;11.15;;
61903;SDS011;47857;52.270;6.804;2024-02-26T07:56:56;16.98;;;11.30;;
61903;SDS011;47857;52.270;6.804;2024-02-26T07:59:21;17.48;;;11.15;;
61903;SDS011;47857;52.270;6.804;2024-02-26T08:01:53;16.88;;;10.60;;
61903;SDS011;47857;52.270;6.804;2024-02-26T08:04:18;15.18;;;10.20;;
61903;SDS011;47857;52.270;6.804;2024-02-26T08:06:44;15.68;;;10.60;;
61903;SDS011;47857;52.270;6.804;2024-02-26T08:09:09;15.45;;;9.85;;
61903;SDS011;47857;52.270;6.804;2024-02-26T08:11:35;15.40;;;10.30;;
61903;SDS011;47857;52.270;6.804;2024-02-26T08:14:00;13.70;;;9.68;;
61903;SDS011;47857;52.270;6.804;2024-02-26T08:16:26;16.27;;;9.93;;
61903;SDS011;47857;52.270;6.804;2024-02-26T08:18:52;23.63;;;10.30;;
61903;SDS011;47857;52.270;6.804;2024-02-26T08:21:17;18.13;;;10.05;;
61903;SDS011;47857;52.270;6.804;2024-02-26T08:23:43;15.57;;;10.32;;
61903;SDS011;47857;52.270;6.804;2024-02-26T08:26:09;16.35;;;10.32;;
61903;SDS011;47857;52.270;6.804;2024-02-26T08:28:39;16.17;;;10.25;;
61903;SDS011;47857;52.270;6.804;2024-02-26T08:31:04;14.13;;;10.00;;
61903;SDS011;47857;52.270;6.804;2024-02-26T08:33:30;14.75;;;9.73;;
61903;SDS011;47857;52.270;6.804;2024-02-26T08:35:56;14.40;;;9.45;;
61903;SDS011;47857;52.270;6.804;2024-02-26T08:38:22;14.38;;;9.45;;
61903;SDS011;47857;52.270;6.804;2024-02-26T08:40:48;15.00;;;9.77;;
61903;SDS011;47857;52.270;6.804;2024-02-26T08:43:14;14.70;;;8.85;;
61903;SDS011;47857;52.270;6.804;2024-02-26T08:45:39;13.45;;;9.30;;
61903;SDS011;47857;52.270;6.804;2024-02-26T08:48:05;16.27;;;9.85;;
61903;SDS011;47857;52.270;6.804;2024-02-26T08:50:31;14.82;;;10.25;;
61903;SDS011;47857;52.270;6.804;2024-02-26T08:52:56;15.65;;;9.88;;
61903;SDS011;47857;52.270;6.804;2024-02-26T08:55:22;15.10;;;10.25;;
61903;SDS011;47857;52.270;6.804;2024-02-26T08:57:47;15.25;;;9.98;;
61903;SDS011;47857;52.270;6.804;2024-02-26T09:00:13;15.80;;;10.80;;
61903;SDS011;47857;52.270;6.804;2024-02-26T09:02:40;16.35;;;10.55;;
61903;SDS011;47857;52.270;6.804;2024-02-26T09:05:09;16.70;;;10.30;;
61903;SDS011;47857;52.270;6.804;2024-02-26T09:07:35;16.27;;;10.60;;
61903;SDS011;47857;52.270;6.804;2024-02-26T09:10:01;16.25;;;11.02;;
61903;SDS011;47857;52.270;6.804;2024-02-26T09:12:27;18.60;;;11.73;;
61903;SDS011;47857;52.270;6.804;2024-02-26T09:14:52;20.70;;;12.18;;
61903;SDS011;47857;52.270;6.804;2024-02-26T09:17:18;19.40;;;11.75;;
61903;SDS011;47857;52.270;6.804;2024-02-26T09:19:43;21.35;;;13.27;;
61903;SDS011;47857;52.270;6.804;2024-02-26T09:22:09;22.42;;;12.98;;
61903;SDS011;47857;52.270;6.804;2024-02-26T09:24:35;21.33;;;13.30;;
61903;SDS011;47857;52.270;6.804;2024-02-26T09:27:01;23.70;;;14.13;;
61903;SDS011;47857;52.270;6.804;2024-02-26T09:29:26;24.00;;;14.07;;
61903;SDS011;47857;52.270;6.804;2024-02-26T09:31:52;24.15;;;14.48;;
61903;SDS011;47857;52.270;6.804;2024-02-26T09:34:18;24.98;;;14.88;;
61903;SDS011;47857;52.270;6.804;2024-02-26T09:36:43;24.35;;;14.70;;
61903;SDS011;47857;52.270;6.804;2024-02-26T09:39:09;25.55;;;14.90;;
61903;SDS011;47857;52.270;6.804;2024-02-26T09:41:36;25.63;;;15.30;;
61903;SDS011;47857;52.270;6.804;2024-02-26T09:44:02;26.92;;;15.98;;
61903;SDS011;47857;52.270;6.804;2024-02-26T09:46:30;28.23;;;16.23;;
61903;SDS011;47857;52.270;6.804;2024-02-26T09:48:55;25.58;;;16.00;;
61903;SDS011;47857;52.270;6.804;2024-02-26T09:51:24;30.88;;;16.95;;
61903;SDS011;47857;52.270;6.804;2024-02-26T09:53:53;27.20;;;17.17;;
61903;SDS011;47857;52.270;6.804;2024-02-26T09:56:20;26.73;;;16.42;;
61903;SDS011;47857;52.270;6.804;2024-02-26T09:58:46;28.70;;;17.73;;
61903;SDS011;47857;52.270;6.804;2024-02-26T10:01:16;28.45;;;17.38;;
61903;SDS011;47857;52.270;6.804;2024-02-26T10:03:42;28.52;;;17.63;;
61903;SDS011;47857;52.270;6.804;2024-02-26T10:06:10;27.75;;;18.08;;
61903;SDS011;47857;52.270;6.804;2024-02-26T10:08:36;31.13;;;19.30;;
61903;SDS011;47857;52.270;6.804;2024-02-26T10:11:05;29.83;;;18.77;;
61903;SDS011;47857;52.270;6.804;2024-02-26T10:13:31;32.72;;;19.55;;
61903;SDS011;47857;52.270;6.804;2024-02-26T10:15:57;30.80;;;18.45;;
61903;SDS011;47857;52.270;6.804;2024-02-26T10:18:23;31.45;;;18.83;;
61903;SDS011;47857;52.270;6.804;2024-02-26T10:20:59;29.73;;;18.38;;
61903;SDS011;47857;52.270;6.804;2024-02-26T10:23:26;29.58;;;18.83;;
61903;SDS011;47857;52.270;6.804;2024-02-26T10:25:54;31.80;;;18.65;;
61903;SDS011;47857;52.270;6.804;2024-02-26T10:28:20;30.92;;;19.30;;
61903;SDS011;47857;52.270;6.804;2024-02-26T10:30:46;26.67;;;16.73;;
61903;SDS011;47857;52.270;6.804;2024-02-26T10:33:12;31.00;;;18.08;;
61903;SDS011;47857;52.270;6.804;2024-02-26T10:35:39;29.58;;;16.83;;
61903;SDS011;47857;52.270;6.804;2024-02-26T10:38:08;24.95;;;15.57;;
61903;SDS011;47857;52.270;6.804;2024-02-26T10:40:34;25.25;;;15.05;;
61903;SDS011;47857;52.270;6.804;2024-02-26T10:42:59;24.58;;;15.02;;
61903;SDS011;47857;52.270;6.804;2024-02-26T10:45:26;24.10;;;14.40;;
61903;SDS011;47857;52.270;6.804;2024-02-26T10:47:51;21.67;;;13.70;;
61903;SDS011;47857;52.270;6.804;2024-02-26T10:50:17;23.90;;;14.20;;
61903;SDS011;47857;52.270;6.804;2024-02-26T10:52:43;22.92;;;13.52;;
61903;SDS011;47857;52.270;6.804;2024-02-26T10:55:09;22.13;;;13.18;;
61903;SDS011;47857;52.270;6.804;2024-02-26T10:57:44;20.52;;;12.82;;
61903;SDS011;47857;52.270;6.804;2024-02-26T11:00:10;20.10;;;12.68;;
61903;SDS011;47857;52.270;6.804;2024-02-26T11:02:39;17.95;;;11.68;;
61903;SDS011;47857;52.270;6.804;2024-02-26T11:05:06;19.27;;;11.45;;
61903;SDS011;47857;52.270;6.804;2024-02-26T11:07:32;16.38;;;10.43;;
61903;SDS011;47857;52.270;6.804;2024-02-26T11:09:59;16.52;;;10.82;;
61903;SDS011;47857;52.270;6.804;2024-02-26T11:12:26;17.77;;;10.85;;
61903;SDS011;47857;52.270;6.804;2024-02-26T11:14:53;16.88;;;10.25;;
61903;SDS011;47857;52.270;6.804;2024-02-26T11:17:22;15.57;;;10.10;;
61903;SDS011;47857;52.270;6.804;2024-02-26T11:19:48;15.88;;;10.05;;
61903;SDS011;47857;52.270;6.804;2024-02-26T11:22:15;14.85;;;9.30;;
61903;SDS011;47857;52.270;6.804;2024-02-26T11:24:40;17.25;;;10.25;;
61903;SDS011;47857;52.270;6.804;2024-02-26T11:27:08;14.50;;;9.43;;
61903;SDS011;47857;52.270;6.804;2024-02-26T11:29:39;15.70;;;8.88;;
61903;SDS011;47857;52.270;6.804;2024-02-26T11:32:08;13.23;;;8.97;;
61903;SDS011;47857;52.270;6.804;2024-02-26T11:34:34;15.15;;;8.98;;
61903;SDS011;47857;52.270;6.804;2024-02-26T11:37:12;14.52;;;9.57;;
61903;SDS011;47857;52.270;6.804;2024-02-26T11:39:42;12.85;;;8.65;;
61903;SDS011;47857;52.270;6.804;2024-02-26T11:42:08;13.93;;;9.10;;
61903;SDS011;47857;52.270;6.804;2024-02-26T11:44:34;12.75;;;8.77;;
61903;SDS011;47857;52.270;6.804;2024-02-26T11:47:20;14.50;;;9.18;;
61903;SDS011;47857;52.270;6.804;2024-02-26T11:49:47;13.50;;;8.90;;
61903;SDS011;47857;52.270;6.804;2024-02-26T11:52:13;12.13;;;8.55;;
61903;SDS011;47857;52.270;6.804;2024-02-26T11:54:39;13.60;;;9.50;;
61903;SDS011;47857;52.270;6.804;2024-02-26T11:59:53;15.25;;;9.15;;
61903;SDS011;47857;52.270;6.804;2024-02-26T12:05:23;14.25;;;8.85;;
61903;SDS011;47857;52.270;6.804;2024-02-26T12:07:53;12.65;;;8.75;;
61903;SDS011;47857;52.270;6.804;2024-02-26T12:12:47;12.10;;;8.60;;
61903;SDS011;47857;52.270;6.804;2024-02-26T12:15:12;12.07;;;8.52;;
61903;SDS011;47857;52.270;6.804;2024-02-26T12:17:40;12.80;;;8.75;;
61903;SDS011;47857;52.270;6.804;2024-02-26T12:20:09;14.32;;;8.70;;
61903;SDS011;47857;52.270;6.804;2024-02-26T12:22:36;12.88;;;8.30;;
61903;SDS011;47857;52.270;6.804;2024-02-26T12:25:04;12.32;;;8.57;;
61903;SDS011;47857;52.270;6.804;2024-02-26T12:27:31;15.27;;;8.23;;
61903;SDS011;47857;52.270;6.804;2024-02-26T12:29:56;12.23;;;8.00;;
61903;SDS011;47857;52.270;6.804;2024-02-26T12:32:22;11.48;;;7.80;;
61903;SDS011;47857;52.270;6.804;2024-02-26T12:34:48;14.02;;;9.15;;
61903;SDS011;47857;52.270;6.804;2024-02-26T12:37:14;13.30;;;8.35;;
61903;SDS011;47857;52.270;6.804;2024-02-26T12:39:40;12.55;;;8.15;;
61903;SDS011;47857;52.270;6.804;2024-02-26T12:42:06;12.27;;;8.05;;
61903;SDS011;47857;52.270;6.804;2024-02-26T12:44:32;12.85;;;8.48;;
61903;SDS011;47857;52.270;6.804;2024-02-26T12:47:00;13.55;;;8.50;;
61903;SDS011;47857;52.270;6.804;2024-02-26T12:49:30;11.27;;;7.80;;
61903;SDS011;47857;52.270;6.804;2024-02-26T12:51:55;13.20;;;8.23;;
61903;SDS011;47857;52.270;6.804;2024-02-26T12:54:30;11.80;;;8.00;;
61903;SDS011;47857;52.270;6.804;2024-02-26T12:56:57;11.80;;;7.30;;
61903;SDS011;47857;52.270;6.804;2024-02-26T12:59:23;12.32;;;7.75;;
61903;SDS011;47857;52.270;6.804;2024-02-26T13:01:48;12.65;;;7.65;;
61903;SDS011;47857;52.270;6.804;2024-02-26T13:04:14;11.48;;;7.45;;
61903;SDS011;47857;52.270;6.804;2024-02-26T13:06:40;12.27;;;7.82;;
61903;SDS011;47857;52.270;6.804;2024-02-26T13:09:05;11.30;;;7.97;;
61903;SDS011;47857;52.270;6.804;2024-02-26T13:11:31;12.30;;;8.10;;
61903;SDS011;47857;52.270;6.804;2024-02-26T13:13:58;10.90;;;7.75;;
61903;SDS011;47857;52.270;6.804;2024-02-26T13:16:24;10.82;;;8.07;;
61903;SDS011;47857;52.270;6.804;2024-02-26T13:18:50;12.02;;;7.95;;
61903;SDS011;47857;52.270;6.804;2024-02-26T13:21:17;10.40;;;7.40;;
61903;SDS011;47857;52.270;6.804;2024-02-26T13:23:43;10.95;;;7.40;;
61903;SDS011;47857;52.270;6.804;2024-02-26T13:26:13;11.23;;;7.85;;
61903;SDS011;47857;52.270;6.804;2024-02-26T13:28:39;11.63;;;7.07;;
61903;SDS011;47857;52.270;6.804;2024-02-26T13:31:05;10.82;;;7.47;;
61903;SDS011;47857;52.270;6.804;2024-02-26T13:33:33;12.00;;;8.27;;
61903;SDS011;47857;52.270;6.804;2024-02-26T13:35:59;16.48;;;10.40;;
61903;SDS011;47857;52.270;6.804;2024-02-26T13:38:25;11.57;;;7.82;;
61903;SDS011;47857;52.270;6.804;2024-02-26T13:40:51;12.65;;;8.00;;
61903;SDS011;47857;52.270;6.804;2024-02-26T13:43:18;11.05;;;7.55;;
61903;SDS011;47857;52.270;6.804;2024-02-26T13:45:44;13.32;;;7.32;;
61903;SDS011;47857;52.270;6.804;2024-02-26T13:48:10;12.35;;;7.80;;
61903;SDS011;47857;52.270;6.804;2024-02-26T13:50:36;11.45;;;7.22;;
61903;SDS011;47857;52.270;6.804;2024-02-26T13:53:02;11.30;;;7.57;;
61903;SDS011;47857;52.270;6.804;2024-02-26T13:55:29;11.52;;;7.40;;
61903;SDS011;47857;52.270;6.804;2024-02-26T13:57:57;9.80;;;6.65;;
61903;SDS011;47857;52.270;6.804;2024-02-26T14:00:23;9.52;;;6.82;;
61903;SDS011;47857;52.270;6.804;2024-02-26T14:02:50;10.48;;;7.20;;
61903;SDS011;47857;52.270;6.804;2024-02-26T14:05:15;12.10;;;7.57;;
61903;SDS011;47857;52.270;6.804;2024-02-26T14:07:41;13.27;;;7.60;;
61903;SDS011;47857;52.270;6.804;2024-02-26T14:10:07;10.50;;;7.38;;
61903;SDS011;47857;52.270;6.804;2024-02-26T14:12:35;10.80;;;7.38;;
61903;SDS011;47857;52.270;6.804;2024-02-26T14:15:00;11.98;;;7.75;;
61903;SDS011;47857;52.270;6.804;2024-02-26T14:17:29;11.38;;;7.22;;
61903;SDS011;47857;52.270;6.804;2024-02-26T14:19:55;11.13;;;7.53;;
61903;SDS011;47857;52.270;6.804;2024-02-26T14:22:20;14.25;;;7.78;;
61903;SDS011;47857;52.270;6.804;2024-02-26T14:24:46;11.68;;;7.85;;
61903;SDS011;47857;52.270;6.804;2024-02-26T14:27:12;11.75;;;8.13;;
61903;SDS011;47857;52.270;6.804;2024-02-26T14:29:41;10.00;;;7.50;;
61903;SDS011;47857;52.270;6.804;2024-02-26T14:32:08;10.88;;;7.53;;
61903;SDS011;47857;52.270;6.804;2024-02-26T14:34:34;10.23;;;7.05;;
61903;SDS011;47857;52.270;6.804;2024-02-26T14:37:00;10.43;;;7.13;;
61903;SDS011;47857;52.270;6.804;2024-02-26T14:39:25;10.50;;;7.70;;